Hercules J — 5BDG4 — position and weather

sailwx.info

Track history (hours):
 
Tides and Currents Weather Stations Pressure Air Temp Water Temp Dewpoint Dewpoint Depression Visibility Wind Speed Wind Dir Waves Ship Positions

Hercules J

Last reported at 2018-Jun-18 07:16 UTC. Time now 2018-Jun-19 02:14 UTC.
Position N 49°29' W 004°15'.

Length 151 m; draft 8.5 m.

Type: Ship (hazmat cat A). MMSI: 212302000.

Date/timePositionNaut miles runAvg speedWind from/ knotsBaromVisibWave heightAir tempDewpointWater temp
2018-Jun-18 07:16N 49°29' W 004°15'513.3
2018-Jun-18 06:52N 49°32' W 004°08'1714.0
2018-Jun-18 05:39N 49°40' W 003°46'614.7
2018-Jun-18 05:13N 49°44' W 003°37'815.5
2018-Jun-18 04:40N 49°48' W 003°26'316.0
2018-Jun-18 04:30N 49°50' W 003°22'816.1
2018-Jun-18 03:59N 49°54' W 003°11'816.2
2018-Jun-18 03:29N 49°58' W 003°00'915.7
2018-Jun-18 02:53N 50°01' W 002°47'8112.9
2018-Jun-17 20:37N 50°23' W 000°45'514.6
2018-Jun-17 20:15N 50°24' W 000°37'3015.4
2018-Jun-17 18:20N 50°32' E 000°08'616.0
2018-Jun-17 17:57N 50°34' E 000°17'715.8
2018-Jun-17 17:30N 50°36' E 000°28'715.3
2018-Jun-17 17:00N 50°39' E 000°38'815.1
2018-Jun-17 16:30N 50°44' E 000°48'714.3
2018-Jun-17 16:00N 50°48' E 000°57'713.4
2018-Jun-17 15:30N 50°52' E 001°05'612.8
2018-Jun-17 15:00N 50°57' E 001°13'612.0
2018-Jun-17 14:30N 51°00' E 001°20'611.6
2018-Jun-17 14:00N 51°04' E 001°27'612.4
2018-Jun-17 13:30N 51°08' E 001°35'612.9
2018-Jun-17 13:00N 51°12' E 001°43'714.4
2018-Jun-17 12:30N 51°18' E 001°49'815.9
2018-Jun-17 12:00N 51°25' E 001°55'816.8
2018-Jun-17 11:30N 51°31' E 002°05'816.8
2018-Jun-17 11:00N 51°37' E 002°14'4215.5
2018-Jun-17 08:18N 52°02' E 003°08'514.9
2018-Jun-17 08:00N 52°03' E 003°15'714.6
2018-Jun-17 07:30N 52°03' E 003°27'714.6
2018-Jun-17 07:00N 52°04' E 003°39'714.3
2018-Jun-17 06:30N 52°03' E 003°50'5 9.5
2018-Jun-17 06:00N 52°02' E 003°58'510.0
2018-Jun-17 05:30N 51°59' E 004°04'612.1
2018-Jun-17 05:00N 51°56' E 004°13'510.3
2018-Jun-17 04:30N 51°54' E 004°20'3 6.5
2018-Jun-17 03:58N 51°53' E 004°26'0 0.0
2018-Jun-17 03:29N 51°53' E 004°26'0 0.0
2018-Jun-17 02:58N 51°53' E 004°26'0 0.0
2018-Jun-17 02:22N 51°53' E 004°26'0 0.0
2018-Jun-17 01:58N 51°53' E 004°26'0 0.0
2018-Jun-17 01:28N 51°53' E 004°26'0 0.0
2018-Jun-17 00:57N 51°53' E 004°26'0 0.0
2018-Jun-17 00:27N 51°53' E 004°26'0 0.0
2018-Jun-16 23:57N 51°53' E 004°26'0 0.0
2018-Jun-16 23:27N 51°53' E 004°26'0 0.0
2018-Jun-16 22:57N 51°53' E 004°26'0 0.0
2018-Jun-16 22:26N 51°53' E 004°26'0 0.0
2018-Jun-16 21:56N 51°53' E 004°26'0 0.0
2018-Jun-16 21:29N 51°53' E 004°26'0 0.0
2018-Jun-16 20:59N 51°53' E 004°26'0 0.0
2018-Jun-16 20:30N 51°53' E 004°26'0 0.0
2018-Jun-16 20:00N 51°53' E 004°26'1 1.6
2018-Jun-16 19:30N 51°53' E 004°24'1 1.2
2018-Jun-16 18:59N 51°53' E 004°26'0 0.0
2018-Jun-16 18:29N 51°53' E 004°26'0 0.0
2018-Jun-16 17:55N 51°53' E 004°26'0 0.0
2018-Jun-16 17:25N 51°53' E 004°26'0 0.0
2018-Jun-16 16:58N 51°53' E 004°26'0 0.0
2018-Jun-16 16:25N 51°53' E 004°26'0 0.0
2018-Jun-16 15:58N 51°53' E 004°26'0 0.0
2018-Jun-16 15:30N 51°53' E 004°26'0 0.0
2018-Jun-16 15:00N 51°53' E 004°26'0 0.0
2018-Jun-16 14:30N 51°53' E 004°26'0 0.7
2018-Jun-16 14:00N 51°53' E 004°25'2 3.8
2018-Jun-16 13:31N 51°54' E 004°22'510.2
2018-Jun-16 13:00N 51°55' E 004°14'611.7
2018-Jun-16 12:30N 51°59' E 004°07'3 5.7
2018-Jun-16 12:00N 51°57' E 004°03'0 0.1
2018-Jun-16 11:25N 51°57' E 004°03'0 0.0
2018-Jun-16 10:58N 51°57' E 004°03'0 0.0
2018-Jun-16 10:28N 51°57' E 004°03'0 0.0
2018-Jun-16 09:58N 51°57' E 004°03'0 0.0
2018-Jun-16 09:27N 51°57' E 004°03'0 0.0
2018-Jun-16 08:54N 51°57' E 004°03'0 0.0
2018-Jun-16 08:30N 51°57' E 004°03'0 0.0
2018-Jun-16 08:00N 51°57' E 004°03'0 0.0
2018-Jun-16 07:29N 51°57' E 004°03'0 0.0
2018-Jun-16 06:59N 51°57' E 004°03'0 0.0
2018-Jun-16 06:23N 51°57' E 004°03'0 0.0
2018-Jun-16 05:59N 51°57' E 004°03'0 0.0
2018-Jun-16 05:26N 51°57' E 004°03'0 0.0
2018-Jun-16 04:58N 51°57' E 004°03'0 0.0
2018-Jun-16 04:28N 51°57' E 004°03'0 0.0
2018-Jun-16 03:58N 51°57' E 004°03'0 0.0
2018-Jun-16 03:25N 51°57' E 004°03'0 0.0
2018-Jun-16 02:58N 51°57' E 004°03'0 0.0
2018-Jun-16 02:30N 51°57' E 004°03'0 0.0
2018-Jun-16 01:57N 51°57' E 004°03'0 0.0
2018-Jun-16 01:30N 51°57' E 004°03'0 0.0
2018-Jun-16 01:00N 51°57' E 004°03'0 0.0
2018-Jun-16 00:27N 51°57' E 004°03'0 0.0
2018-Jun-15 23:59N 51°57' E 004°03'0 0.0
2018-Jun-15 23:29N 51°57' E 004°03'0 0.0
2018-Jun-15 22:50N 51°57' E 004°03'0 0.0
2018-Jun-15 22:29N 51°57' E 004°03'0 0.0
2018-Jun-15 22:00N 51°57' E 004°03'0 0.5
2018-Jun-15 21:30N 51°57' E 004°03'0 0.0
2018-Jun-15 21:00N 51°57' E 004°03'0 0.0
2018-Jun-15 20:30N 51°57' E 004°03'0 0.0
2018-Jun-15 20:00N 51°57' E 004°03'0 0.0
2018-Jun-15 19:30N 51°57' E 004°03'0 0.0
2018-Jun-15 19:00N 51°57' E 004°03'0 0.0
2018-Jun-15 18:30N 51°57' E 004°03'0 0.0
2018-Jun-15 18:00N 51°57' E 004°03'0 0.0
2018-Jun-15 17:30N 51°57' E 004°03'0 0.0
2018-Jun-15 17:00N 51°57' E 004°03'0 0.0
2018-Jun-15 16:30N 51°57' E 004°03'0 0.0
2018-Jun-15 16:00N 51°57' E 004°03'0 0.0
2018-Jun-15 15:30N 51°57' E 004°03'0 0.0
2018-Jun-15 15:00N 51°57' E 004°03'0 0.0
2018-Jun-15 14:30N 51°57' E 004°03'0 0.0
2018-Jun-15 14:00N 51°57' E 004°03'0 0.0
2018-Jun-15 13:30N 51°57' E 004°03'0 0.0
2018-Jun-15 13:00N 51°57' E 004°03'0 0.0
2018-Jun-15 12:30N 51°57' E 004°03'0 0.0
2018-Jun-15 12:00N 51°57' E 004°03'0 0.0
2018-Jun-15 11:30N 51°57' E 004°03'0 0.0
2018-Jun-15 11:00N 51°57' E 004°03'0 0.0
2018-Jun-15 10:30N 51°57' E 004°03'0 0.0
2018-Jun-15 10:00N 51°57' E 004°03'0 0.0
2018-Jun-15 09:30N 51°57' E 004°03'0 0.0
2018-Jun-15 09:00N 51°57' E 004°03'0 0.0
2018-Jun-15 08:30N 51°57' E 004°03'0 0.0
2018-Jun-15 08:00N 51°57' E 004°03'0 0.0
2018-Jun-15 07:30N 51°57' E 004°03'0 0.0
2018-Jun-15 07:00N 51°57' E 004°03'0 0.0
2018-Jun-15 06:30N 51°57' E 004°03'0 0.0
2018-Jun-15 06:00N 51°57' E 004°03'0 0.0
2018-Jun-15 05:30N 51°57' E 004°03'0 0.0
2018-Jun-15 05:00N 51°57' E 004°03'0 0.0
2018-Jun-15 04:31N 51°57' E 004°03'0 0.0
2018-Jun-15 04:00N 51°57' E 004°03'0 0.0
2018-Jun-15 03:30N 51°57' E 004°03'0 0.0
2018-Jun-15 03:00N 51°57' E 004°03'0 0.0
2018-Jun-15 02:31N 51°57' E 004°03'0 0.0
2018-Jun-15 02:00N 51°57' E 004°03'0 0.0
2018-Jun-15 01:31N 51°57' E 004°03'0 0.0
2018-Jun-15 01:00N 51°57' E 004°03'0 0.0
2018-Jun-15 00:30N 51°57' E 004°03'0 0.0
2018-Jun-15 00:00N 51°57' E 004°03'0 0.0
2018-Jun-14 23:30N 51°57' E 004°03'0 0.0
2018-Jun-14 23:00N 51°57' E 004°03'0 0.0
2018-Jun-14 22:30N 51°57' E 004°03'0 0.0
2018-Jun-14 22:00N 51°57' E 004°03'0 0.0
2018-Jun-14 21:30N 51°57' E 004°03'0 0.0
2018-Jun-14 21:00N 51°57' E 004°03'0 0.0
2018-Jun-14 20:27N 51°57' E 004°03'0 0.0
2018-Jun-14 20:00N 51°57' E 004°03'0 0.0
2018-Jun-14 19:30N 51°57' E 004°03'0 0.0
2018-Jun-14 19:00N 51°57' E 004°03'0 0.0
2018-Jun-14 18:30N 51°57' E 004°03'0 0.0
2018-Jun-14 18:00N 51°57' E 004°03'0 0.0
2018-Jun-14 17:30N 51°57' E 004°03'0 0.0
2018-Jun-14 16:59N 51°57' E 004°03'0 0.0
2018-Jun-14 16:30N 51°57' E 004°03'1 1.9
2018-Jun-14 16:00N 51°57' E 004°05'3 6.0
2018-Jun-14 15:30N 51°57' E 003°60'0 0.7
2018-Jun-14 15:00N 51°57' E 003°60'0 0.0
2018-Jun-14 14:24N 51°57' E 003°60'0 0.0
2018-Jun-14 14:00N 51°57' E 003°60'0 0.0
2018-Jun-14 13:30N 51°57' E 003°60'0 0.0
2018-Jun-14 12:59N 51°57' E 003°60'0 0.0
2018-Jun-14 12:23N 51°57' E 003°60'0 0.0
2018-Jun-14 11:59N 51°57' E 003°60'0 0.0
2018-Jun-14 11:29N 51°57' E 003°60'0 0.0
2018-Jun-14 10:49N 51°57' E 003°60'0 0.0
2018-Jun-14 10:28N 51°57' E 003°60'0 0.0
2018-Jun-14 09:58N 51°57' E 003°60'0 0.0
2018-Jun-14 09:28N 51°57' E 003°60'0 0.0
2018-Jun-14 08:58N 51°57' E 003°60'0 0.0
2018-Jun-14 08:27N 51°57' E 003°60'0 0.0
2018-Jun-14 07:57N 51°57' E 003°60'2 4.2
2018-Jun-14 07:30N 51°58' E 004°02'1 1.9
2018-Jun-14 06:59N 51°58' E 004°03'0 0.0
2018-Jun-14 06:29N 51°58' E 004°03'0 0.0
2018-Jun-14 05:28N 51°58' E 004°03'0 0.0
2018-Jun-14 04:58N 51°58' E 004°03'0 0.0
2018-Jun-14 04:28N 51°58' E 004°03'0 0.0
2018-Jun-14 03:58N 51°58' E 004°03'0 0.3
2018-Jun-14 03:30N 51°58' E 004°03'1 2.6
2018-Jun-14 03:00N 51°59' E 004°02'0 0.0
2018-Jun-14 02:29N 51°59' E 004°02'0 0.0
2018-Jun-14 01:59N 51°59' E 004°02'0 0.0
2018-Jun-14 01:28N 51°59' E 004°02'0 0.0
2018-Jun-14 00:55N 51°59' E 004°02'0 0.0
2018-Jun-14 00:25N 51°59' E 004°02'0 0.0
2018-Jun-14 00:00N 51°59' E 004°02'0 0.0
2018-Jun-13 23:30N 51°59' E 004°02'0 0.0
2018-Jun-13 23:00N 51°59' E 004°02'0 0.0
2018-Jun-13 22:27N 51°59' E 004°02'0 0.0
2018-Jun-13 22:00N 51°59' E 004°02'0 0.0
2018-Jun-13 21:29N 51°59' E 004°02'0 0.0
2018-Jun-13 20:59N 51°59' E 004°02'0 0.0
2018-Jun-13 20:29N 51°59' E 004°02'0 0.0
2018-Jun-13 19:59N 51°59' E 004°02'0 0.0
2018-Jun-13 19:29N 51°59' E 004°02'0 0.0
2018-Jun-13 18:55N 51°59' E 004°02'0 0.0
2018-Jun-13 18:28N 51°59' E 004°02'0 0.0
2018-Jun-13 17:58N 51°59' E 004°02'0 0.0
2018-Jun-13 17:28N 51°59' E 004°02'0 0.0
2018-Jun-13 17:00N 51°59' E 004°02'0 0.0
2018-Jun-13 16:27N 51°59' E 004°02'0 0.0
2018-Jun-13 16:00N 51°59' E 004°02'0 0.3
2018-Jun-13 15:30N 51°58' E 004°02'2 3.5
2018-Jun-13 15:00N 51°59' E 004°05'5 9.8
2018-Jun-13 14:30N 51°57' E 004°12'510.1
2018-Jun-13 14:00N 51°54' E 004°18'4 7.8
2018-Jun-13 13:30N 51°53' E 004°25'0 0.4
2018-Jun-13 12:59N 51°53' E 004°25'0 0.0
2018-Jun-13 12:23N 51°53' E 004°25'0 0.0
2018-Jun-13 11:56N 51°53' E 004°25'0 0.0
2018-Jun-13 11:19N 51°53' E 004°25'0 0.0
2018-Jun-13 10:55N 51°53' E 004°25'0 0.0
2018-Jun-13 10:10N 51°53' E 004°25'0 0.0
2018-Jun-13 09:55N 51°53' E 004°25'0 0.0
2018-Jun-13 09:25N 51°53' E 004°25'0 0.0
2018-Jun-13 08:57N 51°53' E 004°25'0 0.0
2018-Jun-13 08:27N 51°53' E 004°25'0 0.0
2018-Jun-13 08:00N 51°53' E 004°25'0 0.0
2018-Jun-13 07:27N 51°53' E 004°25'0 0.0
2018-Jun-13 06:54N 51°53' E 004°25'0 0.0
2018-Jun-13 06:26N 51°53' E 004°25'0 0.0
2018-Jun-13 05:56N 51°53' E 004°25'0 0.0
2018-Jun-13 05:29N 51°53' E 004°25'0 0.0
2018-Jun-13 04:56N 51°53' E 004°25'0 0.0
2018-Jun-13 04:25N 51°53' E 004°25'0 0.0
2018-Jun-13 03:52N 51°53' E 004°25'0 0.0
2018-Jun-13 03:28N 51°53' E 004°25'0 0.0
2018-Jun-13 02:58N 51°53' E 004°25'0 0.0
2018-Jun-13 02:28N 51°53' E 004°25'0 0.0
2018-Jun-13 02:00N 51°53' E 004°25'0 0.0
2018-Jun-13 01:27N 51°53' E 004°25'0 0.0
2018-Jun-13 01:00N 51°53' E 004°25'0 0.0
2018-Jun-13 00:30N 51°53' E 004°25'0 0.0
2018-Jun-13 00:00N 51°53' E 004°25'0 0.0
2018-Jun-12 23:30N 51°53' E 004°25'0 0.0
2018-Jun-12 22:59N 51°53' E 004°25'0 0.0
2018-Jun-12 22:26N 51°53' E 004°25'0 0.0
2018-Jun-12 21:59N 51°53' E 004°25'0 0.0
2018-Jun-12 21:25N 51°53' E 004°25'0 0.0
2018-Jun-12 20:58N 51°53' E 004°25'0 0.0
2018-Jun-12 20:28N 51°53' E 004°25'0 0.0
2018-Jun-12 19:55N 51°53' E 004°25'0 0.0
2018-Jun-12 19:28N 51°53' E 004°25'0 0.0
2018-Jun-12 19:00N 51°53' E 004°25'0 0.0
2018-Jun-12 18:27N 51°53' E 004°25'0 0.0
2018-Jun-12 18:00N 51°53' E 004°25'0 0.0
2018-Jun-12 17:30N 51°53' E 004°25'0 0.0
2018-Jun-12 17:00N 51°53' E 004°25'0 0.0
2018-Jun-12 16:29N 51°53' E 004°25'0 0.0
2018-Jun-12 15:53N 51°53' E 004°25'0 0.0
2018-Jun-12 15:26N 51°53' E 004°25'0 0.0
2018-Jun-12 14:59N 51°53' E 004°25'0 0.0
2018-Jun-12 14:28N 51°53' E 004°25'0 0.0
2018-Jun-12 13:58N 51°53' E 004°25'0 0.0
2018-Jun-12 13:28N 51°53' E 004°25'0 0.0
2018-Jun-12 12:58N 51°53' E 004°25'0 0.0
2018-Jun-12 12:25N 51°53' E 004°25'0 0.0
2018-Jun-12 12:00N 51°53' E 004°25'0 0.0
2018-Jun-12 11:27N 51°53' E 004°25'0 0.0
2018-Jun-12 10:57N 51°53' E 004°25'0 0.0
2018-Jun-12 10:30N 51°53' E 004°25'0 0.0
2018-Jun-12 09:47N 51°53' E 004°25'0 0.0
2018-Jun-12 09:29N 51°53' E 004°25'0 0.0
2018-Jun-12 08:59N 51°53' E 004°25'0 0.0
2018-Jun-12 08:29N 51°53' E 004°25'0 0.0
2018-Jun-12 07:56N 51°53' E 004°25'0 0.0
2018-Jun-12 07:19N 51°53' E 004°25'0 0.0
2018-Jun-12 06:49N 51°53' E 004°25'0 0.0
2018-Jun-12 06:25N 51°53' E 004°25'0 0.0
2018-Jun-12 05:55N 51°53' E 004°25'0 0.0
2018-Jun-12 05:25N 51°53' E 004°25'0 0.0
2018-Jun-12 05:00N 51°53' E 004°25'0 0.5
2018-Jun-12 04:30N 51°53' E 004°25'0 0.0
2018-Jun-12 03:59N 51°53' E 004°25'0 0.0
2018-Jun-12 03:29N 51°53' E 004°25'0 0.0
2018-Jun-12 02:58N 51°53' E 004°25'0 0.0
2018-Jun-12 02:28N 51°53' E 004°25'0 0.0
2018-Jun-12 01:58N 51°53' E 004°25'0 0.0
2018-Jun-12 01:28N 51°53' E 004°25'0 0.0
2018-Jun-12 00:58N 51°53' E 004°25'0 0.0
2018-Jun-12 00:30N 51°53' E 004°25'0 0.0
2018-Jun-12 00:00N 51°53' E 004°25'0 0.0
2018-Jun-11 23:30N 51°53' E 004°25'0 0.0
2018-Jun-11 22:57N 51°53' E 004°25'0 0.0
2018-Jun-11 22:30N 51°53' E 004°25'0 0.0
2018-Jun-11 21:59N 51°53' E 004°25'0 0.0
2018-Jun-11 21:30N 51°53' E 004°25'0 0.3
2018-Jun-11 21:00N 51°53' E 004°25'0 0.4
2018-Jun-11 20:30N 51°53' E 004°25'2 4.7
2018-Jun-11 20:00N 51°54' E 004°21'510.3
2018-Jun-11 19:30N 51°56' E 004°13'612.5
2018-Jun-11 19:00N 51°59' E 004°05'612.1
2018-Jun-11 18:30N 51°59' E 003°55'611.8
2018-Jun-11 17:59N 51°59' E 003°45'4 9.6
2018-Jun-11 17:30N 51°58' E 003°38'612.1
2018-Jun-11 17:00N 51°56' E 003°29'611.9
2018-Jun-11 16:29N 51°54' E 003°19'611.5
2018-Jun-11 16:00N 51°52' E 003°10'611.6
2018-Jun-11 15:30N 51°51' E 003°01'611.3
2018-Jun-11 14:59N 51°49' E 002°52'711.4
2018-Jun-11 14:23N 51°47' E 002°42'411.6
2018-Jun-11 14:00N 51°45' E 002°36'612.0
2018-Jun-11 13:30N 51°41' E 002°29'612.3
2018-Jun-11 13:00N 51°36' E 002°23'612.4
2018-Jun-11 12:29N 51°31' E 002°16'612.5
2018-Jun-11 12:00N 51°25' E 002°12'712.6
2018-Jun-11 11:26N 51°19' E 002°08'612.7
2018-Jun-11 11:00N 51°14' E 002°04'713.2
2018-Jun-11 10:30N 51°10' E 001°55'713.5
2018-Jun-11 10:00N 51°07' E 001°46'713.8
2018-Jun-11 09:30N 51°02' E 001°38'813.8
2018-Jun-11 08:56N 50°56' E 001°29'612.8
2018-Jun-11 08:29N 50°51' E 001°25'1112.4
2018-Jun-11 07:33N 50°41' E 001°17'412.6
2018-Jun-11 07:16N 50°38' E 001°13'4612.3
2018-Jun-11 03:32N 50°21' E 000°07'412.6
2018-Jun-11 03:14N 50°20' E 000°01'312.4
2018-Jun-11 03:00N 50°19' W 000°03'612.1
2018-Jun-11 02:28N 50°17' W 000°13'712.4
2018-Jun-11 01:53N 50°15' W 000°24'513.2
2018-Jun-11 01:28N 50°14' W 000°33'613.2
2018-Jun-11 01:00N 50°13' W 000°42'812.8
2018-Jun-11 00:22N 50°11' W 000°54'412.3
2018-Jun-11 00:01N 50°10' W 001°01'612.2
2018-Jun-10 23:31N 50°08' W 001°10'612.2
2018-Jun-10 23:00N 50°07' W 001°19'612.4
2018-Jun-10 22:31N 50°05' W 001°29'612.6
2018-Jun-10 22:00N 50°02' W 001°38'612.5
2018-Jun-10 21:30N 50°01' W 001°47'612.3
2018-Jun-10 21:00N 49°59' W 001°56'4813.0
2018-Jun-10 17:16N 49°43' W 003°07'56113.6
2018-Jun-08 23:55N 41°16' W 008°49'615.4
2018-Jun-08 23:31N 41°11' W 008°45'3 6.0
2018-Jun-08 23:00N 41°11' W 008°41'0 0.3
2018-Jun-08 22:28N 41°12' W 008°41'0 0.0
2018-Jun-08 22:00N 41°12' W 008°41'0 0.0
2018-Jun-08 21:30N 41°12' W 008°41'0 0.0
2018-Jun-08 21:00N 41°12' W 008°41'0 0.0
2018-Jun-08 20:30N 41°12' W 008°41'0 0.0
2018-Jun-08 20:00N 41°12' W 008°41'0 0.0
2018-Jun-08 19:30N 41°12' W 008°41'0 0.0
2018-Jun-08 19:00N 41°12' W 008°41'0 0.0
2018-Jun-08 18:30N 41°12' W 008°41'0 0.0
2018-Jun-08 18:00N 41°12' W 008°41'0 0.0
2018-Jun-08 17:30N 41°12' W 008°41'0 0.0
2018-Jun-08 17:00N 41°12' W 008°41'0 0.0
2018-Jun-08 16:30N 41°12' W 008°41'0 0.0
2018-Jun-08 15:59N 41°12' W 008°41'0 0.0
2018-Jun-08 15:31N 41°12' W 008°41'0 0.0
2018-Jun-08 15:00N 41°12' W 008°41'0 0.0
2018-Jun-08 14:30N 41°12' W 008°41'0 0.0
2018-Jun-08 14:00N 41°12' W 008°41'0 0.0
2018-Jun-08 13:30N 41°12' W 008°41'0 0.0
2018-Jun-08 13:00N 41°12' W 008°41'0 0.0
2018-Jun-08 12:30N 41°12' W 008°41'0 0.0
2018-Jun-08 12:00N 41°12' W 008°41'0 0.0
2018-Jun-08 11:30N 41°12' W 008°41'0 0.0
2018-Jun-08 11:00N 41°12' W 008°41'0 0.0
2018-Jun-08 10:30N 41°12' W 008°41'0 0.0
2018-Jun-08 10:00N 41°12' W 008°41'0 0.0
2018-Jun-08 09:30N 41°12' W 008°41'0 0.0
2018-Jun-08 09:00N 41°12' W 008°41'0 0.0
2018-Jun-08 08:30N 41°12' W 008°41'0 0.0
2018-Jun-08 07:59N 41°12' W 008°41'0 0.0
2018-Jun-08 07:30N 41°12' W 008°41'  
Track history (hours):
 
Tides and Currents Weather Stations Pressure Air Temp Water Temp Dewpoint Dewpoint Depression Visibility Wind Speed Wind Dir Waves Ship Positions

Hercules J

Last reported at 2018-Jun-18 07:16 UTC. Time now 2018-Jun-19 02:14 UTC.
Position N 49°29' W 004°15'.

Length 151 m; draft 8.5 m.

Type: Ship (hazmat cat A). MMSI: 212302000.

Date/timePositionNaut miles runAvg speedWind from/ knotsBaromVisibWave heightAir tempDewpointWater temp
2018-Jun-18 07:16N 49°29' W 004°15'513.3
2018-Jun-18 06:52N 49°32' W 004°08'1714.0
2018-Jun-18 05:39N 49°40' W 003°46'614.7
2018-Jun-18 05:13N 49°44' W 003°37'815.5
2018-Jun-18 04:40N 49°48' W 003°26'316.0
2018-Jun-18 04:30N 49°50' W 003°22'816.1
2018-Jun-18 03:59N 49°54' W 003°11'816.2
2018-Jun-18 03:29N 49°58' W 003°00'915.7
2018-Jun-18 02:53N 50°01' W 002°47'8112.9
2018-Jun-17 20:37N 50°23' W 000°45'514.6
2018-Jun-17 20:15N 50°24' W 000°37'3015.4
2018-Jun-17 18:20N 50°32' E 000°08'616.0
2018-Jun-17 17:57N 50°34' E 000°17'715.8
2018-Jun-17 17:30N 50°36' E 000°28'715.3
2018-Jun-17 17:00N 50°39' E 000°38'815.1
2018-Jun-17 16:30N 50°44' E 000°48'714.3
2018-Jun-17 16:00N 50°48' E 000°57'713.4
2018-Jun-17 15:30N 50°52' E 001°05'612.8
2018-Jun-17 15:00N 50°57' E 001°13'612.0
2018-Jun-17 14:30N 51°00' E 001°20'611.6
2018-Jun-17 14:00N 51°04' E 001°27'612.4
2018-Jun-17 13:30N 51°08' E 001°35'612.9
2018-Jun-17 13:00N 51°12' E 001°43'714.4
2018-Jun-17 12:30N 51°18' E 001°49'815.9
2018-Jun-17 12:00N 51°25' E 001°55'816.8
2018-Jun-17 11:30N 51°31' E 002°05'816.8
2018-Jun-17 11:00N 51°37' E 002°14'4215.5
2018-Jun-17 08:18N 52°02' E 003°08'514.9
2018-Jun-17 08:00N 52°03' E 003°15'714.6
2018-Jun-17 07:30N 52°03' E 003°27'714.6
2018-Jun-17 07:00N 52°04' E 003°39'714.3
2018-Jun-17 06:30N 52°03' E 003°50'5 9.5
2018-Jun-17 06:00N 52°02' E 003°58'510.0
2018-Jun-17 05:30N 51°59' E 004°04'612.1
2018-Jun-17 05:00N 51°56' E 004°13'510.3
2018-Jun-17 04:30N 51°54' E 004°20'3 6.5
2018-Jun-17 03:58N 51°53' E 004°26'0 0.0
2018-Jun-17 03:29N 51°53' E 004°26'0 0.0
2018-Jun-17 02:58N 51°53' E 004°26'0 0.0
2018-Jun-17 02:22N 51°53' E 004°26'0 0.0
2018-Jun-17 01:58N 51°53' E 004°26'0 0.0
2018-Jun-17 01:28N 51°53' E 004°26'0 0.0
2018-Jun-17 00:57N 51°53' E 004°26'0 0.0
2018-Jun-17 00:27N 51°53' E 004°26'0 0.0
2018-Jun-16 23:57N 51°53' E 004°26'0 0.0
2018-Jun-16 23:27N 51°53' E 004°26'0 0.0
2018-Jun-16 22:57N 51°53' E 004°26'0 0.0
2018-Jun-16 22:26N 51°53' E 004°26'0 0.0
2018-Jun-16 21:56N 51°53' E 004°26'0 0.0
2018-Jun-16 21:29N 51°53' E 004°26'0 0.0
2018-Jun-16 20:59N 51°53' E 004°26'0 0.0
2018-Jun-16 20:30N 51°53' E 004°26'0 0.0
2018-Jun-16 20:00N 51°53' E 004°26'1 1.6
2018-Jun-16 19:30N 51°53' E 004°24'1 1.2
2018-Jun-16 18:59N 51°53' E 004°26'0 0.0
2018-Jun-16 18:29N 51°53' E 004°26'0 0.0
2018-Jun-16 17:55N 51°53' E 004°26'0 0.0
2018-Jun-16 17:25N 51°53' E 004°26'0 0.0
2018-Jun-16 16:58N 51°53' E 004°26'0 0.0
2018-Jun-16 16:25N 51°53' E 004°26'0 0.0
2018-Jun-16 15:58N 51°53' E 004°26'0 0.0
2018-Jun-16 15:30N 51°53' E 004°26'0 0.0
2018-Jun-16 15:00N 51°53' E 004°26'0 0.0
2018-Jun-16 14:30N 51°53' E 004°26'0 0.7
2018-Jun-16 14:00N 51°53' E 004°25'2 3.8
2018-Jun-16 13:31N 51°54' E 004°22'510.2
2018-Jun-16 13:00N 51°55' E 004°14'611.7
2018-Jun-16 12:30N 51°59' E 004°07'3 5.7
2018-Jun-16 12:00N 51°57' E 004°03'0 0.1
2018-Jun-16 11:25N 51°57' E 004°03'0 0.0
2018-Jun-16 10:58N 51°57' E 004°03'0 0.0
2018-Jun-16 10:28N 51°57' E 004°03'0 0.0
2018-Jun-16 09:58N 51°57' E 004°03'0 0.0
2018-Jun-16 09:27N 51°57' E 004°03'0 0.0
2018-Jun-16 08:54N 51°57' E 004°03'0 0.0
2018-Jun-16 08:30N 51°57' E 004°03'0 0.0
2018-Jun-16 08:00N 51°57' E 004°03'0 0.0
2018-Jun-16 07:29N 51°57' E 004°03'0 0.0
2018-Jun-16 06:59N 51°57' E 004°03'0 0.0
2018-Jun-16 06:23N 51°57' E 004°03'0 0.0
2018-Jun-16 05:59N 51°57' E 004°03'0 0.0
2018-Jun-16 05:26N 51°57' E 004°03'0 0.0
2018-Jun-16 04:58N 51°57' E 004°03'0 0.0
2018-Jun-16 04:28N 51°57' E 004°03'0 0.0
2018-Jun-16 03:58N 51°57' E 004°03'0 0.0
2018-Jun-16 03:25N 51°57' E 004°03'0 0.0
2018-Jun-16 02:58N 51°57' E 004°03'0 0.0
2018-Jun-16 02:30N 51°57' E 004°03'0 0.0
2018-Jun-16 01:57N 51°57' E 004°03'0 0.0
2018-Jun-16 01:30N 51°57' E 004°03'0 0.0
2018-Jun-16 01:00N 51°57' E 004°03'0 0.0
2018-Jun-16 00:27N 51°57' E 004°03'0 0.0
2018-Jun-15 23:59N 51°57' E 004°03'0 0.0
2018-Jun-15 23:29N 51°57' E 004°03'0 0.0
2018-Jun-15 22:50N 51°57' E 004°03'0 0.0
2018-Jun-15 22:29N 51°57' E 004°03'0 0.0
2018-Jun-15 22:00N 51°57' E 004°03'0 0.5
2018-Jun-15 21:30N 51°57' E 004°03'0 0.0
2018-Jun-15 21:00N 51°57' E 004°03'0 0.0
2018-Jun-15 20:30N 51°57' E 004°03'0 0.0
2018-Jun-15 20:00N 51°57' E 004°03'0 0.0
2018-Jun-15 19:30N 51°57' E 004°03'0 0.0
2018-Jun-15 19:00N 51°57' E 004°03'0 0.0
2018-Jun-15 18:30N 51°57' E 004°03'0 0.0
2018-Jun-15 18:00N 51°57' E 004°03'0 0.0
2018-Jun-15 17:30N 51°57' E 004°03'0 0.0
2018-Jun-15 17:00N 51°57' E 004°03'0 0.0
2018-Jun-15 16:30N 51°57' E 004°03'0 0.0
2018-Jun-15 16:00N 51°57' E 004°03'0 0.0
2018-Jun-15 15:30N 51°57' E 004°03'0 0.0
2018-Jun-15 15:00N 51°57' E 004°03'0 0.0
2018-Jun-15 14:30N 51°57' E 004°03'0 0.0
2018-Jun-15 14:00N 51°57' E 004°03'0 0.0
2018-Jun-15 13:30N 51°57' E 004°03'0 0.0
2018-Jun-15 13:00N 51°57' E 004°03'0 0.0
2018-Jun-15 12:30N 51°57' E 004°03'0 0.0
2018-Jun-15 12:00N 51°57' E 004°03'0 0.0
2018-Jun-15 11:30N 51°57' E 004°03'0 0.0
2018-Jun-15 11:00N 51°57' E 004°03'0 0.0
2018-Jun-15 10:30N 51°57' E 004°03'0 0.0
2018-Jun-15 10:00N 51°57' E 004°03'0 0.0
2018-Jun-15 09:30N 51°57' E 004°03'0 0.0
2018-Jun-15 09:00N 51°57' E 004°03'0 0.0
2018-Jun-15 08:30N 51°57' E 004°03'0 0.0
2018-Jun-15 08:00N 51°57' E 004°03'0 0.0
2018-Jun-15 07:30N 51°57' E 004°03'0 0.0
2018-Jun-15 07:00N 51°57' E 004°03'0 0.0
2018-Jun-15 06:30N 51°57' E 004°03'0 0.0
2018-Jun-15 06:00N 51°57' E 004°03'0 0.0
2018-Jun-15 05:30N 51°57' E 004°03'0 0.0
2018-Jun-15 05:00N 51°57' E 004°03'0 0.0
2018-Jun-15 04:31N 51°57' E 004°03'0 0.0
2018-Jun-15 04:00N 51°57' E 004°03'0 0.0
2018-Jun-15 03:30N 51°57' E 004°03'0 0.0
2018-Jun-15 03:00N 51°57' E 004°03'0 0.0
2018-Jun-15 02:31N 51°57' E 004°03'0 0.0
2018-Jun-15 02:00N 51°57' E 004°03'0 0.0
2018-Jun-15 01:31N 51°57' E 004°03'0 0.0
2018-Jun-15 01:00N 51°57' E 004°03'0 0.0
2018-Jun-15 00:30N 51°57' E 004°03'0 0.0
2018-Jun-15 00:00N 51°57' E 004°03'0 0.0
2018-Jun-14 23:30N 51°57' E 004°03'0 0.0
2018-Jun-14 23:00N 51°57' E 004°03'0 0.0
2018-Jun-14 22:30N 51°57' E 004°03'0 0.0
2018-Jun-14 22:00N 51°57' E 004°03'0 0.0
2018-Jun-14 21:30N 51°57' E 004°03'0 0.0
2018-Jun-14 21:00N 51°57' E 004°03'0 0.0
2018-Jun-14 20:27N 51°57' E 004°03'0 0.0
2018-Jun-14 20:00N 51°57' E 004°03'0 0.0
2018-Jun-14 19:30N 51°57' E 004°03'0 0.0
2018-Jun-14 19:00N 51°57' E 004°03'0 0.0
2018-Jun-14 18:30N 51°57' E 004°03'0 0.0
2018-Jun-14 18:00N 51°57' E 004°03'0 0.0
2018-Jun-14 17:30N 51°57' E 004°03'0 0.0
2018-Jun-14 16:59N 51°57' E 004°03'0 0.0
2018-Jun-14 16:30N 51°57' E 004°03'1 1.9
2018-Jun-14 16:00N 51°57' E 004°05'3 6.0
2018-Jun-14 15:30N 51°57' E 003°60'0 0.7
2018-Jun-14 15:00N 51°57' E 003°60'0 0.0
2018-Jun-14 14:24N 51°57' E 003°60'0 0.0
2018-Jun-14 14:00N 51°57' E 003°60'0 0.0
2018-Jun-14 13:30N 51°57' E 003°60'0 0.0
2018-Jun-14 12:59N 51°57' E 003°60'0 0.0
2018-Jun-14 12:23N 51°57' E 003°60'0 0.0
2018-Jun-14 11:59N 51°57' E 003°60'0 0.0
2018-Jun-14 11:29N 51°57' E 003°60'0 0.0
2018-Jun-14 10:49N 51°57' E 003°60'0 0.0
2018-Jun-14 10:28N 51°57' E 003°60'0 0.0
2018-Jun-14 09:58N 51°57' E 003°60'0 0.0
2018-Jun-14 09:28N 51°57' E 003°60'0 0.0
2018-Jun-14 08:58N 51°57' E 003°60'0 0.0
2018-Jun-14 08:27N 51°57' E 003°60'0 0.0
2018-Jun-14 07:57N 51°57' E 003°60'2 4.2
2018-Jun-14 07:30N 51°58' E 004°02'1 1.9
2018-Jun-14 06:59N 51°58' E 004°03'0 0.0
2018-Jun-14 06:29N 51°58' E 004°03'0 0.0
2018-Jun-14 05:28N 51°58' E 004°03'0 0.0
2018-Jun-14 04:58N 51°58' E 004°03'0 0.0
2018-Jun-14 04:28N 51°58' E 004°03'0 0.0
2018-Jun-14 03:58N 51°58' E 004°03'0 0.3
2018-Jun-14 03:30N 51°58' E 004°03'1 2.6
2018-Jun-14 03:00N 51°59' E 004°02'0 0.0
2018-Jun-14 02:29N 51°59' E 004°02'0 0.0
2018-Jun-14 01:59N 51°59' E 004°02'0 0.0
2018-Jun-14 01:28N 51°59' E 004°02'0 0.0
2018-Jun-14 00:55N 51°59' E 004°02'0 0.0
2018-Jun-14 00:25N 51°59' E 004°02'0 0.0
2018-Jun-14 00:00N 51°59' E 004°02'0 0.0
2018-Jun-13 23:30N 51°59' E 004°02'0 0.0
2018-Jun-13 23:00N 51°59' E 004°02'0 0.0
2018-Jun-13 22:27N 51°59' E 004°02'0 0.0
2018-Jun-13 22:00N 51°59' E 004°02'0 0.0
2018-Jun-13 21:29N 51°59' E 004°02'0 0.0
2018-Jun-13 20:59N 51°59' E 004°02'0 0.0
2018-Jun-13 20:29N 51°59' E 004°02'0 0.0
2018-Jun-13 19:59N 51°59' E 004°02'0 0.0
2018-Jun-13 19:29N 51°59' E 004°02'0 0.0
2018-Jun-13 18:55N 51°59' E 004°02'0 0.0
2018-Jun-13 18:28N 51°59' E 004°02'0 0.0
2018-Jun-13 17:58N 51°59' E 004°02'0 0.0
2018-Jun-13 17:28N 51°59' E 004°02'0 0.0
2018-Jun-13 17:00N 51°59' E 004°02'0 0.0
2018-Jun-13 16:27N 51°59' E 004°02'0 0.0
2018-Jun-13 16:00N 51°59' E 004°02'0 0.3
2018-Jun-13 15:30N 51°58' E 004°02'2 3.5
2018-Jun-13 15:00N 51°59' E 004°05'5 9.8
2018-Jun-13 14:30N 51°57' E 004°12'510.1
2018-Jun-13 14:00N 51°54' E 004°18'4 7.8
2018-Jun-13 13:30N 51°53' E 004°25'0 0.4
2018-Jun-13 12:59N 51°53' E 004°25'0 0.0
2018-Jun-13 12:23N 51°53' E 004°25'0 0.0
2018-Jun-13 11:56N 51°53' E 004°25'0 0.0
2018-Jun-13 11:19N 51°53' E 004°25'0 0.0
2018-Jun-13 10:55N 51°53' E 004°25'0 0.0
2018-Jun-13 10:10N 51°53' E 004°25'0 0.0
2018-Jun-13 09:55N 51°53' E 004°25'0 0.0
2018-Jun-13 09:25N 51°53' E 004°25'0 0.0
2018-Jun-13 08:57N 51°53' E 004°25'0 0.0
2018-Jun-13 08:27N 51°53' E 004°25'0 0.0
2018-Jun-13 08:00N 51°53' E 004°25'0 0.0
2018-Jun-13 07:27N 51°53' E 004°25'0 0.0
2018-Jun-13 06:54N 51°53' E 004°25'0 0.0
2018-Jun-13 06:26N 51°53' E 004°25'0 0.0
2018-Jun-13 05:56N 51°53' E 004°25'0 0.0
2018-Jun-13 05:29N 51°53' E 004°25'0 0.0
2018-Jun-13 04:56N 51°53' E 004°25'0 0.0
2018-Jun-13 04:25N 51°53' E 004°25'0 0.0
2018-Jun-13 03:52N 51°53' E 004°25'0 0.0
2018-Jun-13 03:28N 51°53' E 004°25'0 0.0
2018-Jun-13 02:58N 51°53' E 004°25'0 0.0
2018-Jun-13 02:28N 51°53' E 004°25'0 0.0
2018-Jun-13 02:00N 51°53' E 004°25'0 0.0
2018-Jun-13 01:27N 51°53' E 004°25'0 0.0
2018-Jun-13 01:00N 51°53' E 004°25'0 0.0
2018-Jun-13 00:30N 51°53' E 004°25'0 0.0
2018-Jun-13 00:00N 51°53' E 004°25'0 0.0
2018-Jun-12 23:30N 51°53' E 004°25'0 0.0
2018-Jun-12 22:59N 51°53' E 004°25'0 0.0
2018-Jun-12 22:26N 51°53' E 004°25'0 0.0
2018-Jun-12 21:59N 51°53' E 004°25'0 0.0
2018-Jun-12 21:25N 51°53' E 004°25'0 0.0
2018-Jun-12 20:58N 51°53' E 004°25'0 0.0
2018-Jun-12 20:28N 51°53' E 004°25'0 0.0
2018-Jun-12 19:55N 51°53' E 004°25'0 0.0
2018-Jun-12 19:28N 51°53' E 004°25'0 0.0
2018-Jun-12 19:00N 51°53' E 004°25'0 0.0
2018-Jun-12 18:27N 51°53' E 004°25'0 0.0
2018-Jun-12 18:00N 51°53' E 004°25'0 0.0
2018-Jun-12 17:30N 51°53' E 004°25'0 0.0
2018-Jun-12 17:00N 51°53' E 004°25'0 0.0
2018-Jun-12 16:29N 51°53' E 004°25'0 0.0
2018-Jun-12 15:53N 51°53' E 004°25'0 0.0
2018-Jun-12 15:26N 51°53' E 004°25'0 0.0
2018-Jun-12 14:59N 51°53' E 004°25'0 0.0
2018-Jun-12 14:28N 51°53' E 004°25'0 0.0
2018-Jun-12 13:58N 51°53' E 004°25'0 0.0
2018-Jun-12 13:28N 51°53' E 004°25'0 0.0
2018-Jun-12 12:58N 51°53' E 004°25'0 0.0
2018-Jun-12 12:25N 51°53' E 004°25'0 0.0
2018-Jun-12 12:00N 51°53' E 004°25'0 0.0
2018-Jun-12 11:27N 51°53' E 004°25'0 0.0
2018-Jun-12 10:57N 51°53' E 004°25'0 0.0
2018-Jun-12 10:30N 51°53' E 004°25'0 0.0
2018-Jun-12 09:47N 51°53' E 004°25'0 0.0
2018-Jun-12 09:29N 51°53' E 004°25'0 0.0
2018-Jun-12 08:59N 51°53' E 004°25'0 0.0
2018-Jun-12 08:29N 51°53' E 004°25'0 0.0
2018-Jun-12 07:56N 51°53' E 004°25'0 0.0
2018-Jun-12 07:19N 51°53' E 004°25'0 0.0
2018-Jun-12 06:49N 51°53' E 004°25'0 0.0
2018-Jun-12 06:25N 51°53' E 004°25'0 0.0
2018-Jun-12 05:55N 51°53' E 004°25'0 0.0
2018-Jun-12 05:25N 51°53' E 004°25'0 0.0
2018-Jun-12 05:00N 51°53' E 004°25'0 0.5
2018-Jun-12 04:30N 51°53' E 004°25'0 0.0
2018-Jun-12 03:59N 51°53' E 004°25'0 0.0
2018-Jun-12 03:29N 51°53' E 004°25'0 0.0
2018-Jun-12 02:58N 51°53' E 004°25'0 0.0
2018-Jun-12 02:28N 51°53' E 004°25'0 0.0
2018-Jun-12 01:58N 51°53' E 004°25'0 0.0
2018-Jun-12 01:28N 51°53' E 004°25'0 0.0
2018-Jun-12 00:58N 51°53' E 004°25'0 0.0
2018-Jun-12 00:30N 51°53' E 004°25'0 0.0
2018-Jun-12 00:00N 51°53' E 004°25'0 0.0
2018-Jun-11 23:30N 51°53' E 004°25'0 0.0
2018-Jun-11 22:57N 51°53' E 004°25'0 0.0
2018-Jun-11 22:30N 51°53' E 004°25'0 0.0
2018-Jun-11 21:59N 51°53' E 004°25'0 0.0
2018-Jun-11 21:30N 51°53' E 004°25'0 0.3
2018-Jun-11 21:00N 51°53' E 004°25'0 0.4
2018-Jun-11 20:30N 51°53' E 004°25'2 4.7
2018-Jun-11 20:00N 51°54' E 004°21'510.3
2018-Jun-11 19:30N 51°56' E 004°13'612.5
2018-Jun-11 19:00N 51°59' E 004°05'612.1
2018-Jun-11 18:30N 51°59' E 003°55'611.8
2018-Jun-11 17:59N 51°59' E 003°45'4 9.6
2018-Jun-11 17:30N 51°58' E 003°38'612.1
2018-Jun-11 17:00N 51°56' E 003°29'611.9
2018-Jun-11 16:29N 51°54' E 003°19'611.5
2018-Jun-11 16:00N 51°52' E 003°10'611.6
2018-Jun-11 15:30N 51°51' E 003°01'611.3
2018-Jun-11 14:59N 51°49' E 002°52'711.4
2018-Jun-11 14:23N 51°47' E 002°42'411.6
2018-Jun-11 14:00N 51°45' E 002°36'612.0
2018-Jun-11 13:30N 51°41' E 002°29'612.3
2018-Jun-11 13:00N 51°36' E 002°23'612.4
2018-Jun-11 12:29N 51°31' E 002°16'612.5
2018-Jun-11 12:00N 51°25' E 002°12'712.6
2018-Jun-11 11:26N 51°19' E 002°08'612.7
2018-Jun-11 11:00N 51°14' E 002°04'713.2
2018-Jun-11 10:30N 51°10' E 001°55'713.5
2018-Jun-11 10:00N 51°07' E 001°46'713.8
2018-Jun-11 09:30N 51°02' E 001°38'813.8
2018-Jun-11 08:56N 50°56' E 001°29'612.8
2018-Jun-11 08:29N 50°51' E 001°25'1112.4
2018-Jun-11 07:33N 50°41' E 001°17'412.6
2018-Jun-11 07:16N 50°38' E 001°13'4612.3
2018-Jun-11 03:32N 50°21' E 000°07'412.6
2018-Jun-11 03:14N 50°20' E 000°01'312.4
2018-Jun-11 03:00N 50°19' W 000°03'612.1
2018-Jun-11 02:28N 50°17' W 000°13'712.4
2018-Jun-11 01:53N 50°15' W 000°24'513.2
2018-Jun-11 01:28N 50°14' W 000°33'613.2
2018-Jun-11 01:00N 50°13' W 000°42'812.8
2018-Jun-11 00:22N 50°11' W 000°54'412.3
2018-Jun-11 00:01N 50°10' W 001°01'612.2
2018-Jun-10 23:31N 50°08' W 001°10'612.2
2018-Jun-10 23:00N 50°07' W 001°19'612.4
2018-Jun-10 22:31N 50°05' W 001°29'612.6
2018-Jun-10 22:00N 50°02' W 001°38'612.5
2018-Jun-10 21:30N 50°01' W 001°47'612.3
2018-Jun-10 21:00N 49°59' W 001°56'4813.0
2018-Jun-10 17:16N 49°43' W 003°07'56113.6
2018-Jun-08 23:55N 41°16' W 008°49'615.4
2018-Jun-08 23:31N 41°11' W 008°45'3 6.0
2018-Jun-08 23:00N 41°11' W 008°41'0 0.3
2018-Jun-08 22:28N 41°12' W 008°41'0 0.0
2018-Jun-08 22:00N 41°12' W 008°41'0 0.0
2018-Jun-08 21:30N 41°12' W 008°41'0 0.0
2018-Jun-08 21:00N 41°12' W 008°41'0 0.0
2018-Jun-08 20:30N 41°12' W 008°41'0 0.0
2018-Jun-08 20:00N 41°12' W 008°41'0 0.0
2018-Jun-08 19:30N 41°12' W 008°41'0 0.0
2018-Jun-08 19:00N 41°12' W 008°41'0 0.0
2018-Jun-08 18:30N 41°12' W 008°41'0 0.0
2018-Jun-08 18:00N 41°12' W 008°41'0 0.0
2018-Jun-08 17:30N 41°12' W 008°41'0 0.0
2018-Jun-08 17:00N 41°12' W 008°41'0 0.0
2018-Jun-08 16:30N 41°12' W 008°41'0 0.0
2018-Jun-08 15:59N 41°12' W 008°41'0 0.0
2018-Jun-08 15:31N 41°12' W 008°41'0 0.0
2018-Jun-08 15:00N 41°12' W 008°41'0 0.0
2018-Jun-08 14:30N 41°12' W 008°41'0 0.0
2018-Jun-08 14:00N 41°12' W 008°41'0 0.0
2018-Jun-08 13:30N 41°12' W 008°41'0 0.0
2018-Jun-08 13:00N 41°12' W 008°41'0 0.0
2018-Jun-08 12:30N 41°12' W 008°41'0 0.0
2018-Jun-08 12:00N 41°12' W 008°41'0 0.0
2018-Jun-08 11:30N 41°12' W 008°41'0 0.0
2018-Jun-08 11:00N 41°12' W 008°41'0 0.0
2018-Jun-08 10:30N 41°12' W 008°41'0 0.0
2018-Jun-08 10:00N 41°12' W 008°41'0 0.0
2018-Jun-08 09:30N 41°12' W 008°41'0 0.0
2018-Jun-08 09:00N 41°12' W 008°41'0 0.0
2018-Jun-08 08:30N 41°12' W 008°41'0 0.0
2018-Jun-08 07:59N 41°12' W 008°41'0 0.0
2018-Jun-08 07:30N 41°12' W 008°41'  

Dump ship's entire track history